Time;durP1;ratioP1;P1;durP2;ratioP2;P2;SDS_P1;SDS_P2;PMS_P1;PMS_P2;Temp;Humidity;BMP_temperature;BMP_pressure;BME280_temperature;BME280_humidity;BME280_pressure;Samples;Min_cycle;Max_cycle;Signal;HPM_P1;HPM_P2
2020/12/05 00:00:45;;;;;;;27.43;21.80;;;6.00;93.50;;;;;;10609409;27;20223;-79
2020/12/05 00:05:47;;;;;;;26.40;21.50;;;6.00;93.20;;;;;;10594739;28;20219;-80
2020/12/05 00:10:49;;;;;;;28.37;22.20;;;6.00;93.50;;;;;;10613280;27;20222;-79
2020/12/05 00:15:50;;;;;;;28.17;20.80;;;6.00;93.30;;;;;;10633230;27;20214;-79
2020/12/05 00:20:53;;;;;;;27.47;21.43;;;6.00;93.40;;;;;;10580018;27;20207;-79
2020/12/05 00:25:54;;;;;;;27.60;20.33;;;6.00;93.80;;;;;;10611140;27;20218;-79
2020/12/05 00:30:56;;;;;;;27.50;21.30;;;6.00;93.50;;;;;;10636434;27;20194;-79
2020/12/05 00:35:59;;;;;;;24.87;20.50;;;6.00;93.40;;;;;;10582277;27;20241;-79
2020/12/05 00:41:03;;;;;;;31.10;22.33;;;6.00;93.30;;;;;;10587822;28;20222;-80
2020/12/05 00:46:05;;;;;;;25.20;20.70;;;6.00;93.50;;;;;;10559079;28;20716;-81
2020/12/05 00:51:11;;;;;;;26.40;20.87;;;6.00;93.40;;;;;;10558918;28;20199;-80
2020/12/05 00:56:19;;;;;;;26.80;20.50;;;6.00;93.60;;;;;;10546956;28;20691;-79
2020/12/05 01:01:20;;;;;;;28.70;21.37;;;6.00;93.50;;;;;;10570266;28;20199;-81
2020/12/05 01:06:23;;;;;;;25.73;20.40;;;6.00;93.20;;;;;;10577445;28;20310;-80
2020/12/05 01:11:25;;;;;;;27.10;22.23;;;6.00;93.70;;;;;;10560418;28;20202;-81
2020/12/05 01:16:27;;;;;;;29.20;20.77;;;6.00;93.90;;;;;;10549718;28;20268;-80
2020/12/05 01:21:30;;;;;;;25.80;20.10;;;6.00;93.60;;;;;;10558984;28;20196;-80
2020/12/05 01:26:32;;;;;;;27.30;21.00;;;6.00;93.70;;;;;;10566694;28;20703;-81
2020/12/05 01:31:33;;;;;;;27.83;22.27;;;5.90;93.70;;;;;;10561676;28;20226;-80
2020/12/05 01:36:36;;;;;;;26.27;20.83;;;5.90;94.10;;;;;;10608625;27;20218;-81
2020/12/05 01:41:37;;;;;;;26.37;20.67;;;5.90;94.60;;;;;;10624847;27;20627;-81
2020/12/05 01:46:40;;;;;;;20.73;18.27;;;5.80;95.00;;;;;;10622781;27;20218;-82
2020/12/05 01:51:43;;;;;;;22.23;18.60;;;5.80;96.00;;;;;;10588438;27;20195;-81
2020/12/05 01:56:49;;;;;;;23.30;19.67;;;5.90;96.40;;;;;;10619302;27;20214;-79
2020/12/05 02:01:52;;;;;;;20.33;18.13;;;5.90;96.90;;;;;;10613580;27;20239;-79
2020/12/05 02:07:16;;;;;;;20.33;18.07;;;5.90;97.90;;;;;;10630231;27;20223;-79
2020/12/05 02:12:28;;;;;;;19.80;17.70;;;5.90;98.70;;;;;;10602473;28;20274;-78
2020/12/05 02:17:34;;;;;;;18.97;16.97;;;5.80;99.50;;;;;;10595092;28;20298;-78
2020/12/05 02:22:42;;;;;;;20.77;17.90;;;5.80;99.90;;;;;;10593358;28;20190;-78
2020/12/05 02:27:46;;;;;;;20.20;18.10;;;5.70;99.90;;;;;;10599134;28;20221;-78
2020/12/05 02:32:48;;;;;;;19.53;16.33;;;5.70;99.90;;;;;;10579892;28;20202;-80
2020/12/05 02:37:57;;;;;;;22.17;19.87;;;5.60;99.90;;;;;;10601955;28;20292;-80
2020/12/05 02:43:00;;;;;;;20.47;18.37;;;5.50;99.90;;;;;;10605600;28;20631;-79
2020/12/05 02:48:02;;;;;;;20.03;18.17;;;5.40;99.90;;;;;;10631574;28;20275;-79
2020/12/05 02:53:04;;;;;;;18.83;17.13;;;5.30;99.90;;;;;;10616568;28;20260;-81
2020/12/05 02:58:07;;;;;;;18.50;16.70;;;5.20;99.90;;;;;;10598864;28;20236;-78
2020/12/05 03:03:08;;;;;;;18.90;17.10;;;4.90;99.90;;;;;;10633023;28;20187;-78
2020/12/05 03:08:10;;;;;;;19.93;16.60;;;4.70;99.90;;;;;;10575779;28;20318;-80
2020/12/05 03:13:12;;;;;;;17.17;15.60;;;4.60;99.90;;;;;;10571839;28;20727;-78
2020/12/05 03:18:14;;;;;;;18.60;16.90;;;4.60;99.90;;;;;;10595667;28;20621;-79
2020/12/05 03:23:16;;;;;;;18.30;16.60;;;4.50;99.90;;;;;;10599998;28;20191;-80
2020/12/05 03:28:18;;;;;;;19.80;17.13;;;4.50;99.90;;;;;;10586369;28;20215;-78
2020/12/05 03:33:21;;;;;;;16.37;14.87;;;4.50;99.90;;;;;;10588144;28;20191;-79
2020/12/05 03:38:23;;;;;;;18.47;16.57;;;4.50;99.90;;;;;;10588729;28;20238;-80
2020/12/05 03:43:26;;;;;;;17.50;15.80;;;4.60;99.90;;;;;;10595799;28;20194;-80
2020/12/05 03:48:27;;;;;;;18.70;16.97;;;4.50;99.90;;;;;;10605514;28;20675;-79
2020/12/05 03:53:29;;;;;;;16.00;14.60;;;4.30;99.90;;;;;;10584808;28;20241;-81
2020/12/05 03:58:31;;;;;;;17.77;15.90;;;4.20;99.90;;;;;;10589566;28;20230;-78
2020/12/05 04:03:33;;;;;;;18.77;16.87;;;4.20;99.90;;;;;;10573714;28;20195;-79
2020/12/05 04:08:35;;;;;;;18.87;17.10;;;4.20;99.90;;;;;;10600082;28;20683;-79
2020/12/05 04:13:37;;;;;;;18.63;16.73;;;4.20;99.90;;;;;;10587660;28;20188;-78
2020/12/05 04:18:39;;;;;;;18.03;16.13;;;4.20;99.90;;;;;;10585661;28;20195;-79
2020/12/05 04:23:40;;;;;;;12.90;11.60;;;4.20;99.90;;;;;;10584034;28;20893;-78
2020/12/05 04:28:43;;;;;;;17.40;15.70;;;4.30;99.90;;;;;;10635111;27;20225;-78
2020/12/05 04:33:45;;;;;;;17.27;15.47;;;4.40;99.90;;;;;;10647505;27;20259;-78
2020/12/05 04:38:46;;;;;;;17.87;16.07;;;4.40;99.90;;;;;;10649556;27;20228;-80
2020/12/05 04:43:49;;;;;;;16.03;14.40;;;4.40;99.90;;;;;;10648613;27;20194;-81
2020/12/05 04:48:53;;;;;;;16.50;14.90;;;4.50;99.90;;;;;;10611111;27;20221;-78
2020/12/05 04:53:55;;;;;;;13.70;12.40;;;4.50;99.90;;;;;;10646401;27;20651;-80
2020/12/05 04:59:04;;;;;;;14.67;13.27;;;4.60;99.90;;;;;;10644167;27;20210;-80
2020/12/05 05:04:06;;;;;;;15.27;13.67;;;4.50;99.90;;;;;;10604187;27;20199;-79
2020/12/05 05:09:08;;;;;;;15.10;13.60;;;4.50;99.90;;;;;;10603001;28;20226;-81
2020/12/05 05:14:13;;;;;;;16.40;14.73;;;4.50;99.90;;;;;;10582809;28;20191;-78
2020/12/05 05:19:20;;;;;;;15.33;13.83;;;4.50;99.90;;;;;;10584677;28;20587;-79
2020/12/05 05:24:22;;;;;;;14.60;13.23;;;4.50;99.90;;;;;;10583423;28;20194;-79
2020/12/05 05:29:26;;;;;;;16.00;14.30;;;4.50;99.90;;;;;;10630809;27;20214;-79
2020/12/05 05:34:28;;;;;;;13.47;12.07;;;4.60;99.90;;;;;;10649821;27;20229;-79
2020/12/05 05:39:42;;;;;;;13.37;12.17;;;4.60;99.90;;;;;;10623224;27;20210;-80
2020/12/05 05:44:44;;;;;;;13.80;12.50;;;4.60;99.90;;;;;;10643629;27;20186;-81
2020/12/05 05:49:46;;;;;;;13.13;11.80;;;4.70;99.90;;;;;;10629234;27;20206;-79
2020/12/05 05:54:54;;;;;;;9.80;8.90;;;4.70;99.90;;;;;;10617507;27;20233;-78
2020/12/05 05:59:57;;;;;;;9.00;8.20;;;4.70;99.90;;;;;;10635272;27;20183;-80
2020/12/05 06:04:59;;;;;;;8.23;7.43;;;4.80;99.90;;;;;;10653604;27;20237;-78
2020/12/05 06:10:01;;;;;;;6.07;5.57;;;4.80;99.90;;;;;;10651097;27;20251;-79
2020/12/05 06:15:04;;;;;;;7.13;6.50;;;4.90;99.90;;;;;;10637365;27;20205;-79
2020/12/05 06:20:05;;;;;;;7.03;6.43;;;5.00;99.90;;;;;;10619345;27;20222;-79
2020/12/05 06:25:11;;;;;;;5.77;5.27;;;5.00;99.90;;;;;;10618340;28;20214;-80
2020/12/05 06:30:14;;;;;;;4.83;4.43;;;5.00;99.90;;;;;;10618462;28;20179;-78
2020/12/05 06:35:33;;;;;;;5.27;4.77;;;5.00;99.90;;;;;;10612798;28;20317;-79
2020/12/05 06:40:41;;;;;;;5.27;4.77;;;5.10;99.90;;;;;;10621913;27;20706;-78
2020/12/05 06:45:43;;;;;;;5.90;4.77;;;5.10;99.90;;;;;;10626348;28;20214;-79
2020/12/05 06:50:46;;;;;;;5.43;5.00;;;5.10;99.90;;;;;;10628341;28;20178;-78
2020/12/05 06:55:49;;;;;;;4.80;4.40;;;5.20;99.90;;;;;;10604713;27;20289;-79
2020/12/05 07:00:52;;;;;;;5.27;4.87;;;5.20;99.90;;;;;;10631637;27;20175;-78
2020/12/05 07:05:54;;;;;;;4.53;4.13;;;5.10;99.90;;;;;;10634145;27;20210;-78
2020/12/05 07:11:01;;;;;;;5.17;4.77;;;5.10;99.90;;;;;;10634848;27;20720;-78
2020/12/05 07:16:20;;;;;;;5.60;5.10;;;5.10;99.90;;;;;;10635076;27;20230;-79
2020/12/05 07:21:23;;;;;;;7.80;6.73;;;5.10;99.90;;;;;;10635969;27;20194;-79
2020/12/05 07:26:25;;;;;;;28.73;18.80;;;5.10;99.90;;;;;;10619654;27;20223;-79
2020/12/05 07:31:30;;;;;;;8.50;7.20;;;5.10;99.90;;;;;;10593161;28;20222;-79
2020/12/05 07:36:37;;;;;;;6.50;6.00;;;5.00;99.90;;;;;;10610846;28;20287;-78
2020/12/05 07:41:49;;;;;;;7.50;6.80;;;4.90;99.90;;;;;;10604083;28;20195;-81
2020/12/05 07:46:52;;;;;;;16.77;15.17;;;4.80;99.90;;;;;;10612434;27;20215;-80
2020/12/05 07:51:55;;;;;;;5.60;5.10;;;4.90;99.90;;;;;;10622764;27;20201;-79
2020/12/05 07:57:06;;;;;;;5.77;5.23;;;4.80;99.90;;;;;;10630834;27;20233;-78
2020/12/05 08:02:14;;;;;;;6.63;4.50;;;4.70;99.90;;;;;;10645925;27;20198;-79
2020/12/05 08:07:35;;;;;;;5.20;4.80;;;4.60;99.90;;;;;;10638058;27;20304;-79
2020/12/05 08:13:13;;;;;;;4.60;4.23;;;4.70;99.90;;;;;;10629634;27;20198;-80
2020/12/05 08:18:16;;;;;;;4.00;3.70;;;4.80;99.90;;;;;;10638746;27;20587;-78
2020/12/05 08:23:26;;;;;;;3.40;3.13;;;4.90;99.90;;;;;;10634804;27;20205;-78
2020/12/05 08:28:31;;;;;;;2.70;2.50;;;5.00;99.90;;;;;;10637856;27;20205;-81
2020/12/05 08:33:42;;;;;;;3.27;3.07;;;5.10;99.90;;;;;;10637552;27;20187;-80
2020/12/05 08:38:44;;;;;;;4.17;3.80;;;5.20;99.90;;;;;;10637242;27;20577;-78
2020/12/05 08:43:46;;;;;;;3.70;3.40;;;5.40;99.90;;;;;;10633016;27;20212;-80
2020/12/05 08:48:49;;;;;;;3.40;3.20;;;5.50;99.90;;;;;;10652115;27;20643;-80
2020/12/05 08:53:51;;;;;;;3.70;3.40;;;5.60;99.90;;;;;;10634831;27;20190;-81
2020/12/05 08:58:52;;;;;;;4.47;3.53;;;5.70;99.90;;;;;;10631650;27;20214;-79
2020/12/05 09:03:55;;;;;;;4.33;3.90;;;5.80;99.90;;;;;;10627297;27;20202;-81
2020/12/05 09:08:57;;;;;;;4.10;3.73;;;5.90;99.90;;;;;;10615088;27;20226;-80
2020/12/05 09:13:58;;;;;;;4.60;4.30;;;5.90;99.90;;;;;;10627867;27;20220;-81
2020/12/05 09:19:01;;;;;;;5.90;5.30;;;5.90;99.90;;;;;;10602442;27;20234;-81
2020/12/05 09:24:05;;;;;;;5.77;5.17;;;6.00;99.90;;;;;;10637475;27;20186;-79
2020/12/05 09:29:06;;;;;;;4.93;4.53;;;5.90;99.90;;;;;;10613850;27;20222;-80
2020/12/05 09:34:09;;;;;;;5.80;5.30;;;6.00;99.90;;;;;;10612090;27;20210;-80
2020/12/05 09:39:11;;;;;;;6.50;5.90;;;6.00;99.90;;;;;;10620406;27;20245;-81
2020/12/05 09:44:13;;;;;;;7.37;6.63;;;6.00;99.90;;;;;;10619539;27;20285;-79
2020/12/05 09:49:16;;;;;;;7.73;7.03;;;6.00;99.90;;;;;;10637088;27;20255;-80
2020/12/05 09:54:18;;;;;;;7.60;7.00;;;6.00;99.90;;;;;;10596716;27;20619;-79
2020/12/05 09:59:19;;;;;;;7.60;6.93;;;6.00;99.90;;;;;;10586923;27;20234;-80
2020/12/05 10:04:22;;;;;;;7.87;7.17;;;6.00;99.90;;;;;;10614371;27;20213;-81
2020/12/05 10:09:23;;;;;;;8.60;7.80;;;5.90;99.90;;;;;;10618400;27;20222;-78
2020/12/05 10:14:25;;;;;;;7.70;7.00;;;5.90;99.90;;;;;;10626716;27;20224;-80
2020/12/05 10:19:28;;;;;;;8.67;7.97;;;5.90;99.90;;;;;;10640369;27;20289;-79
2020/12/05 10:24:29;;;;;;;9.87;8.97;;;5.90;99.90;;;;;;10629279;27;20197;-80
2020/12/05 10:29:31;;;;;;;9.80;8.97;;;5.90;99.90;;;;;;10610222;27;20221;-80
2020/12/05 10:34:34;;;;;;;9.33;8.50;;;5.90;99.90;;;;;;10638146;27;20198;-78
2020/12/05 10:39:35;;;;;;;11.63;10.53;;;6.00;99.90;;;;;;10615043;27;20217;-80
2020/12/05 10:44:37;;;;;;;10.83;9.80;;;6.00;99.90;;;;;;10627338;27;20221;-80
2020/12/05 10:49:39;;;;;;;9.80;8.90;;;5.90;99.90;;;;;;10642270;27;20252;-80
2020/12/05 10:54:41;;;;;;;10.43;9.43;;;5.90;99.90;;;;;;10627341;27;20226;-81
2020/12/05 10:59:43;;;;;;;11.57;10.53;;;5.90;99.90;;;;;;10638088;27;20240;-80
2020/12/05 11:04:46;;;;;;;10.67;9.77;;;5.90;99.90;;;;;;10638661;27;20206;-81
2020/12/05 11:09:47;;;;;;;11.60;9.20;;;5.90;99.90;;;;;;10624700;27;20245;-80
2020/12/05 11:14:49;;;;;;;9.73;8.80;;;6.00;99.90;;;;;;10625792;27;20194;-78
2020/12/05 11:19:51;;;;;;;8.70;8.00;;;6.10;99.90;;;;;;10624967;27;20194;-81
2020/12/05 11:24:53;;;;;;;10.50;9.50;;;6.10;99.90;;;;;;10624455;27;20198;-79
2020/12/05 11:29:55;;;;;;;10.10;9.00;;;6.20;99.90;;;;;;10627562;27;20297;-79
2020/12/05 11:34:57;;;;;;;9.17;8.37;;;6.30;99.90;;;;;;10642813;27;20226;-79
2020/12/05 11:39:59;;;;;;;9.60;8.80;;;6.40;99.90;;;;;;10625650;27;20274;-80
2020/12/05 11:45:00;;;;;;;8.70;7.90;;;6.50;99.90;;;;;;10618279;27;20255;-78
2020/12/05 11:50:03;;;;;;;9.60;8.70;;;6.60;99.90;;;;;;10635509;27;20240;-80
2020/12/05 11:55:05;;;;;;;9.60;8.33;;;6.70;99.90;;;;;;10603206;27;20819;-79
2020/12/05 12:00:06;;;;;;;8.10;7.40;;;6.70;99.90;;;;;;10611241;28;20199;-81
2020/12/05 12:05:14;;;;;;;8.00;7.30;;;6.70;99.90;;;;;;10638267;27;20229;-81
2020/12/05 12:10:17;;;;;;;8.10;7.40;;;6.80;99.90;;;;;;10623102;27;20221;-81
2020/12/05 12:15:18;;;;;;;8.00;7.30;;;6.80;99.90;;;;;;10643949;27;20221;-80
2020/12/05 12:20:21;;;;;;;6.10;5.60;;;6.80;99.90;;;;;;10624162;27;20627;-80
2020/12/05 12:25:23;;;;;;;6.90;6.30;;;6.90;99.90;;;;;;10622271;27;20214;-80
2020/12/05 12:30:24;;;;;;;8.47;7.77;;;6.80;99.90;;;;;;10639602;27;20237;-81
2020/12/05 12:35:27;;;;;;;7.43;6.73;;;6.80;99.90;;;;;;10612507;27;20226;-83
2020/12/05 12:40:28;;;;;;;7.83;7.13;;;6.80;99.90;;;;;;10591606;27;20187;-82
2020/12/05 12:45:31;;;;;;;7.50;6.77;;;6.70;99.90;;;;;;10628173;27;20297;-83
2020/12/05 12:50:34;;;;;;;8.03;7.33;;;6.80;99.90;;;;;;10586792;27;20210;-83
2020/12/05 12:55:35;;;;;;;7.73;7.03;;;6.80;99.90;;;;;;10623184;27;20240;-84
2020/12/05 13:00:37;;;;;;;8.40;7.70;;;6.80;99.90;;;;;;10608041;27;20209;-83
2020/12/05 13:05:40;;;;;;;8.37;7.60;;;6.80;99.90;;;;;;10573953;28;20219;-82
2020/12/05 13:10:41;;;;;;;8.70;7.80;;;6.90;99.90;;;;;;10580409;28;20813;-82
2020/12/05 13:15:43;;;;;;;8.10;7.40;;;6.90;99.90;;;;;;10566718;28;20733;-81
2020/12/05 13:20:46;;;;;;;8.13;7.33;;;6.90;99.90;;;;;;10567396;28;20199;-84
2020/12/05 13:25:48;;;;;;;8.27;7.57;;;7.00;99.90;;;;;;10567685;27;20268;-81
2020/12/05 13:30:50;;;;;;;8.40;7.70;;;7.00;99.90;;;;;;10550398;28;20199;-82
2020/12/05 13:35:52;;;;;;;8.23;7.43;;;6.90;99.90;;;;;;10554215;28;20227;-84
2020/12/05 13:40:54;;;;;;;10.80;8.10;;;6.80;99.90;;;;;;10549841;28;20198;-81
2020/12/05 13:45:56;;;;;;;10.00;9.00;;;6.80;99.90;;;;;;10584184;28;20211;-83
2020/12/05 13:50:58;;;;;;;10.57;9.47;;;6.80;99.90;;;;;;10549177;28;20215;-84
2020/12/05 13:56:00;;;;;;;9.20;8.30;;;6.80;99.90;;;;;;10602540;27;20256;-83
2020/12/05 14:01:02;;;;;;;9.83;8.93;;;6.80;99.90;;;;;;10569008;28;20787;-84
2020/12/05 14:06:05;;;;;;;8.97;8.07;;;6.80;99.90;;;;;;10550239;28;20590;-84
2020/12/05 14:11:06;;;;;;;11.10;9.80;;;6.70;99.90;;;;;;10560464;27;20226;-82
2020/12/05 14:16:08;;;;;;;10.20;9.10;;;6.70;99.90;;;;;;10627042;27;20289;-83
2020/12/05 14:21:11;;;;;;;12.53;10.40;;;6.70;99.90;;;;;;10609192;27;20243;-82
2020/12/05 14:26:12;;;;;;;11.13;10.03;;;6.70;99.90;;;;;;10603303;27;20665;-84
2020/12/05 14:31:16;;;;;;;12.77;10.83;;;6.60;99.90;;;;;;10568132;28;20198;-82
2020/12/05 14:36:20;;;;;;;10.73;9.70;;;6.60;99.90;;;;;;10564869;28;20215;-83
2020/12/05 14:41:22;;;;;;;11.90;10.63;;;6.60;99.90;;;;;;10628563;28;20195;-81
2020/12/05 14:46:24;;;;;;;11.20;10.10;;;6.60;99.90;;;;;;10606680;28;20263;-84
2020/12/05 14:51:27;;;;;;;12.90;11.60;;;6.60;99.90;;;;;;10604374;28;20194;-79
2020/12/05 14:56:28;;;;;;;12.60;10.83;;;6.60;99.90;;;;;;10603718;27;20210;-82
2020/12/05 15:01:30;;;;;;;13.00;11.60;;;6.60;99.90;;;;;;10608234;28;20614;-81
2020/12/05 15:06:32;;;;;;;11.60;10.40;;;6.50;99.90;;;;;;10608572;28;20660;-83
2020/12/05 15:11:34;;;;;;;13.40;11.33;;;6.50;99.90;;;;;;10627398;28;20202;-82
2020/12/05 15:16:36;;;;;;;13.33;11.60;;;6.50;99.90;;;;;;10589994;27;20298;-82
2020/12/05 15:21:50;;;;;;;13.50;12.10;;;6.40;99.90;;;;;;10623747;27;20570;-82
2020/12/05 15:26:52;;;;;;;12.23;11.00;;;6.40;99.90;;;;;;10609872;27;20575;-83
2020/12/05 15:31:53;;;;;;;13.43;11.50;;;6.40;99.90;;;;;;10596010;27;20821;-81
2020/12/05 15:36:56;;;;;;;15.67;13.10;;;6.40;99.90;;;;;;10595238;27;20254;-82
2020/12/05 15:41:58;;;;;;;13.10;11.70;;;6.40;99.90;;;;;;10605561;27;20202;-83
2020/12/05 15:47:00;;;;;;;13.90;12.20;;;6.40;99.90;;;;;;10620267;27;20699;-84
2020/12/05 15:52:03;;;;;;;14.10;12.33;;;6.30;99.90;;;;;;10610982;27;20241;-83
2020/12/05 15:57:05;;;;;;;13.80;12.40;;;6.20;99.90;;;;;;10600010;27;20220;-84
2020/12/05 16:02:06;;;;;;;15.27;13.67;;;6.10;99.90;;;;;;10627085;27;20617;-84
2020/12/05 16:07:09;;;;;;;16.50;12.97;;;6.10;99.90;;;;;;10607906;27;20651;-85
2020/12/05 16:12:12;;;;;;;15.60;13.33;;;6.10;99.90;;;;;;10630420;27;20662;-84
2020/12/05 16:17:13;;;;;;;17.90;14.37;;;6.10;99.90;;;;;;10610309;27;20214;-84
2020/12/05 16:22:16;;;;;;;16.17;13.77;;;6.20;99.90;;;;;;10591798;27;20252;-85
2020/12/05 16:27:18;;;;;;;16.30;13.13;;;6.20;99.90;;;;;;10584370;27;20203;-83
2020/12/05 16:32:19;;;;;;;14.80;13.20;;;6.20;99.90;;;;;;10593547;27;20658;-82
2020/12/05 16:37:23;;;;;;;15.03;13.43;;;6.20;99.90;;;;;;10574345;27;20325;-83
2020/12/05 16:42:30;;;;;;;16.30;14.37;;;6.20;99.90;;;;;;10607182;27;20196;-84
2020/12/05 16:47:31;;;;;;;15.93;13.57;;;6.10;99.90;;;;;;10581342;27;20225;-84
2020/12/05 16:52:34;;;;;;;15.97;13.17;;;6.10;99.90;;;;;;10591909;27;20199;-81
2020/12/05 16:57:36;;;;;;;17.73;15.67;;;6.10;99.90;;;;;;10604377;27;20743;-82
2020/12/05 17:02:37;;;;;;;18.30;14.90;;;6.10;99.90;;;;;;10581360;27;20654;-82
2020/12/05 17:07:40;;;;;;;18.03;15.67;;;6.00;99.90;;;;;;10606980;27;20793;-81
2020/12/05 17:12:42;;;;;;;16.93;14.83;;;6.10;99.90;;;;;;10606159;27;20283;-82
2020/12/05 17:17:43;;;;;;;18.47;14.07;;;6.00;99.90;;;;;;10590498;27;20237;-83
2020/12/05 17:22:46;;;;;;;16.90;13.90;;;6.10;99.90;;;;;;10609532;27;20194;-83
2020/12/05 17:27:48;;;;;;;19.80;15.73;;;6.10;99.90;;;;;;10578114;27;20567;-82
2020/12/05 17:32:50;;;;;;;17.53;15.13;;;6.20;99.90;;;;;;10617012;27;20198;-81
2020/12/05 17:37:52;;;;;;;22.13;18.77;;;6.20;99.90;;;;;;10605626;27;20218;-82
2020/12/05 17:42:54;;;;;;;19.10;16.90;;;6.30;99.90;;;;;;10597928;27;20387;-81
2020/12/05 17:47:55;;;;;;;18.80;16.80;;;6.30;99.90;;;;;;10620174;27;20756;-82
2020/12/05 17:52:58;;;;;;;15.97;14.27;;;6.30;99.90;;;;;;10594589;27;20202;-84
2020/12/05 17:58:00;;;;;;;20.87;17.07;;;6.30;99.90;;;;;;10584525;27;20228;-84
2020/12/05 18:03:02;;;;;;;18.00;16.10;;;6.30;99.90;;;;;;10575859;27;20885;-83
2020/12/05 18:08:07;;;;;;;19.73;17.10;;;6.30;99.90;;;;;;10591756;27;20231;-84
2020/12/05 18:13:09;;;;;;;19.27;15.87;;;6.30;99.90;;;;;;10625186;27;20199;-81
2020/12/05 18:18:10;;;;;;;128.60;66.20;;;6.30;99.90;;;;;;10615107;27;20211;-84
2020/12/05 18:23:13;;;;;;;37.73;26.27;;;6.30;99.90;;;;;;10574365;27;20198;-85
2020/12/05 18:28:14;;;;;;;15.70;14.10;;;6.30;99.90;;;;;;10611672;27;20218;-85
2020/12/05 18:33:16;;;;;;;19.27;15.30;;;6.30;99.90;;;;;;10578244;28;20191;-80
2020/12/05 18:38:19;;;;;;;21.13;17.80;;;6.30;99.90;;;;;;10577919;28;20248;-80
2020/12/05 18:43:20;;;;;;;15.93;14.20;;;6.20;99.90;;;;;;10620436;28;21477;-81
2020/12/05 18:48:22;;;;;;;16.23;14.53;;;6.10;99.90;;;;;;10609080;28;20218;-81
2020/12/05 18:53:25;;;;;;;19.60;16.70;;;6.10;99.90;;;;;;10630310;27;20229;-83
2020/12/05 18:58:27;;;;;;;20.37;17.40;;;6.10;99.90;;;;;;10628086;27;20273;-82
2020/12/05 19:03:31;;;;;;;19.73;17.40;;;6.00;99.90;;;;;;10614709;27;20209;-82
2020/12/05 19:08:35;;;;;;;20.97;17.83;;;6.00;99.90;;;;;;10595648;27;20576;-81
2020/12/05 19:13:36;;;;;;;22.17;18.60;;;6.00;99.90;;;;;;10599194;27;20219;-83
2020/12/05 19:18:38;;;;;;;25.77;21.13;;;6.00;99.90;;;;;;10616588;27;20203;-83
2020/12/05 19:23:42;;;;;;;23.13;19.40;;;5.90;99.90;;;;;;10611392;27;20281;-82
2020/12/05 19:28:44;;;;;;;21.53;18.47;;;5.90;99.90;;;;;;10612216;27;20234;-82
2020/12/05 19:33:45;;;;;;;20.10;17.90;;;5.90;99.90;;;;;;10616836;27;20234;-80
2020/12/05 19:38:48;;;;;;;22.87;19.50;;;5.90;99.90;;;;;;10624970;27;20696;-83
2020/12/05 19:43:50;;;;;;;24.07;21.10;;;5.90;99.90;;;;;;10614149;27;20202;-81
2020/12/05 19:48:51;;;;;;;23.63;20.00;;;5.90;99.90;;;;;;10602303;27;20218;-82
2020/12/05 19:53:54;;;;;;;21.00;17.87;;;5.90;99.90;;;;;;10605309;27;20198;-83
2020/12/05 19:58:56;;;;;;;23.10;18.23;;;5.80;99.90;;;;;;10622287;27;20214;-81
2020/12/05 20:03:57;;;;;;;24.63;21.40;;;5.70;99.90;;;;;;10620480;27;20248;-81
2020/12/05 20:09:00;;;;;;;23.17;19.67;;;5.70;99.90;;;;;;10625930;27;20217;-80
2020/12/05 20:14:02;;;;;;;23.77;20.63;;;5.70;99.90;;;;;;10640641;27;20195;-82
2020/12/05 20:19:03;;;;;;;25.07;22.30;;;5.60;99.90;;;;;;10644336;27;20210;-82
2020/12/05 20:24:06;;;;;;;21.03;18.63;;;5.60;99.90;;;;;;10631091;27;20198;-81
2020/12/05 20:29:07;;;;;;;21.93;19.40;;;5.70;99.90;;;;;;10601621;27;20218;-80
2020/12/05 20:34:09;;;;;;;23.50;21.07;;;5.70;99.90;;;;;;10632149;27;20203;-81
2020/12/05 20:39:12;;;;;;;23.17;20.70;;;5.70;99.90;;;;;;10598886;28;20216;-80
2020/12/05 20:44:14;;;;;;;20.07;17.97;;;5.80;99.90;;;;;;10601731;28;20264;-81
2020/12/05 20:49:15;;;;;;;23.37;20.13;;;5.80;99.90;;;;;;10603385;28;20215;-81
2020/12/05 20:54:18;;;;;;;21.80;19.40;;;5.80;99.90;;;;;;10585078;28;20195;-83
2020/12/05 20:59:20;;;;;;;23.30;19.40;;;5.90;99.90;;;;;;10565106;28;20211;-82
2020/12/05 21:04:21;;;;;;;20.97;18.70;;;5.80;99.90;;;;;;10576756;28;20252;-80
2020/12/05 21:09:24;;;;;;;22.40;18.30;;;5.80;99.90;;;;;;10595979;28;20226;-82
2020/12/05 21:14:26;;;;;;;24.43;20.83;;;5.80;99.90;;;;;;10577190;28;20266;-80
2020/12/05 21:19:27;;;;;;;23.50;21.00;;;5.80;99.90;;;;;;10595588;28;20632;-82
2020/12/05 21:24:30;;;;;;;23.70;20.90;;;5.80;99.90;;;;;;10572505;27;20191;-80
2020/12/05 21:29:31;;;;;;;24.53;21.50;;;5.90;99.90;;;;;;10567149;28;20218;-82
2020/12/05 21:34:33;;;;;;;23.37;20.87;;;5.90;99.90;;;;;;10595801;27;20210;-80
2020/12/05 21:39:36;;;;;;;24.97;22.27;;;5.80;99.90;;;;;;10602758;27;20210;-80
2020/12/05 21:44:38;;;;;;;25.80;23.00;;;5.80;99.90;;;;;;10611960;27;20232;-80
2020/12/05 21:49:39;;;;;;;23.17;20.67;;;5.80;99.90;;;;;;10617881;27;20265;-80
2020/12/05 21:54:44;;;;;;;22.37;19.80;;;5.80;99.90;;;;;;10570106;28;20195;-81
2020/12/05 21:59:45;;;;;;;25.97;22.07;;;5.80;99.90;;;;;;10602411;27;20210;-81
2020/12/05 22:04:47;;;;;;;23.30;20.90;;;5.80;99.90;;;;;;10631545;27;20259;-80
2020/12/05 22:09:49;;;;;;;24.10;21.70;;;5.70;99.90;;;;;;10614464;27;20305;-80
2020/12/05 22:14:51;;;;;;;23.40;21.00;;;5.70;99.90;;;;;;10614356;27;20913;-80
2020/12/05 22:19:53;;;;;;;24.97;22.37;;;5.70;99.90;;;;;;10598291;28;20195;-80
2020/12/05 22:24:55;;;;;;;24.77;22.13;;;5.70;99.90;;;;;;10574978;27;20289;-81
2020/12/05 22:29:57;;;;;;;24.83;22.17;;;5.70;99.90;;;;;;10629573;27;20225;-82
2020/12/05 22:34:59;;;;;;;24.03;20.90;;;5.70;99.90;;;;;;10628170;27;20206;-80
2020/12/05 22:40:01;;;;;;;22.60;20.17;;;5.70;99.90;;;;;;10607997;27;20205;-79
2020/12/05 22:45:03;;;;;;;24.10;21.20;;;5.80;99.90;;;;;;10589299;27;20674;-82
2020/12/05 22:50:05;;;;;;;24.50;21.70;;;5.80;99.90;;;;;;10629064;27;20276;-82
2020/12/05 22:55:09;;;;;;;21.97;19.70;;;5.80;99.90;;;;;;10589293;28;20224;-81
2020/12/05 23:00:28;;;;;;;22.90;20.40;;;5.80;99.90;;;;;;10606184;28;20738;-82
2020/12/05 23:05:29;;;;;;;21.00;18.80;;;5.80;99.90;;;;;;10629689;27;20248;-82
2020/12/05 23:10:32;;;;;;;22.27;19.63;;;5.80;99.90;;;;;;10599631;27;20214;-81
2020/12/05 23:15:34;;;;;;;23.43;20.60;;;5.80;99.90;;;;;;10597837;28;20237;-80
2020/12/05 23:20:35;;;;;;;24.90;21.00;;;5.80;99.90;;;;;;10591795;28;20201;-82
2020/12/05 23:25:38;;;;;;;24.67;21.17;;;5.80;99.90;;;;;;10585562;27;20265;-82
2020/12/05 23:36:00;;;;;;;23.87;20.60;;;5.80;99.90;;;;;;10615303;27;20254;-82
2020/12/05 23:41:03;;;;;;;24.97;22.13;;;5.90;99.90;;;;;;10628930;27;20197;-81
2020/12/05 23:46:09;;;;;;;28.27;23.03;;;5.90;99.90;;;;;;10613342;27;20250;-80
2020/12/05 23:51:10;;;;;;;25.93;21.23;;;5.90;99.90;;;;;;10616805;27;20225;-80
2020/12/05 23:56:14;;;;;;;27.83;21.63;;;5.90;99.90;;;;;;10620591;27;20250;-80
